PWSweather.com
Personal Weather Stations
Station Observations
COONRAPIDS
Minneapolis, MN 55433

Minneapolis, MN 55433

Lat: 45.187721, Lon: -93.36828

Elevation: 898

Station Type: Davis Vantage Pro 2

High Low Average
Temperature 65.0°F18.3°C 37.9°F3.3°C 49.4°F9.7°C
Dew Point 34.7°F1.5°C 25.8°F-3.4°C 31.4°F-0.3°C
Winds 6.9 mph 11.1 kmh Calm Calm 1.0 mph S1.6 kmh S
Wind Gusts 13.8 mph22.2 kmh -- 2.0 mph3.2 kmh
Humidity 87% 24% 55%
Pressure 30.00 in1015.9 mb 29.61 in1002.7 mb -
Precipitation 0.03 in0.8 mm - -
Hour Temp Dew Point Humidity Winds Wind Gusts Pressure Precip Precip Rate Daily Precip Total
12:00 AM 38.0°F3.3°C 33.9°F1.1°C 85% Calm Calm 1.2 mph1.9 kmh 29.61 in1002.7 mb - 0.00 in0.0 mm 0.01 in0.3 mm
12:10 AM 37.9°F3.3°C 34.1°F1.2°C 86% Calm Calm 3.5 mph5.6 kmh 29.61 in1002.7 mb - 0.00 in0.0 mm 0.01 in0.3 mm
12:20 AM 37.9°F3.3°C 34.1°F1.2°C 86% 1.2 mph NW1.9 kmh NW 3.5 mph5.6 kmh 29.61 in1002.7 mb - 0.01 in0.3 mm 0.02 in0.5 mm
12:30 AM 37.9°F3.3°C 34.1°F1.2°C 86% Calm Calm -- 29.62 in1003.0 mb - 0.00 in0.0 mm 0.02 in0.5 mm
12:40 AM 37.9°F3.3°C 34.1°F1.2°C 86% Calm Calm 3.5 mph5.6 kmh 29.62 in1003.0 mb - 0.00 in0.0 mm 0.02 in0.5 mm
12:50 AM 37.9°F3.3°C 34.1°F1.2°C 86% Calm Calm -- 29.62 in1003.0 mb - 0.00 in0.0 mm 0.02 in0.5 mm
01:00 AM 38.0°F3.3°C 34.2°F1.2°C 86% 2.3 mph NW3.7 kmh NW 10.4 mph16.7 kmh 29.62 in1003.0 mb - 0.00 in0.0 mm 0.02 in0.5 mm
01:10 AM 38.1°F3.4°C 34.3°F1.3°C 86% Calm Calm -- 29.62 in1003.0 mb - 0.00 in0.0 mm 0.02 in0.5 mm
01:20 AM 38.1°F3.4°C 34.3°F1.3°C 86% Calm Calm 2.3 mph3.7 kmh 29.63 in1003.4 mb - 0.00 in0.0 mm 0.02 in0.5 mm
01:30 AM 38.0°F3.3°C 34.5°F1.4°C 87% 2.3 mph NW3.7 kmh NW 3.5 mph5.6 kmh 29.63 in1003.4 mb - 0.00 in0.0 mm 0.02 in0.5 mm
01:40 AM 38.0°F3.3°C 34.5°F1.4°C 87% Calm Calm -- 29.63 in1003.4 mb - 0.00 in0.0 mm 0.02 in0.5 mm
01:50 AM 38.0°F3.3°C 34.5°F1.4°C 87% 1.2 mph NW1.9 kmh NW 1.2 mph1.9 kmh 29.64 in1003.7 mb - 0.00 in0.0 mm 0.02 in0.5 mm
02:00 AM 38.1°F3.4°C 34.6°F1.4°C 87% Calm Calm 2.3 mph3.7 kmh 29.64 in1003.7 mb - 0.00 in0.0 mm 0.02 in0.5 mm
02:10 AM 38.1°F3.4°C 34.6°F1.4°C 87% 1.2 mph WNW1.9 kmh WNW 1.2 mph1.9 kmh 29.64 in1003.7 mb - 0.00 in0.0 mm 0.02 in0.5 mm
02:20 AM 38.2°F3.4°C 34.7°F1.5°C 87% Calm Calm -- 29.65 in1004.1 mb - 0.00 in0.0 mm 0.02 in0.5 mm
02:30 AM 38.2°F3.4°C 34.4°F1.3°C 86% Calm Calm -- 29.66 in1004.4 mb - 0.00 in0.0 mm 0.02 in0.5 mm
02:40 AM 38.2°F3.4°C 34.1°F1.2°C 85% Calm Calm 5.8 mph9.3 kmh 29.66 in1004.4 mb - 0.00 in0.0 mm 0.02 in0.5 mm
02:50 AM 38.5°F3.6°C 33.8°F1.0°C 83% 2.3 mph N3.7 kmh N 3.5 mph5.6 kmh 29.66 in1004.4 mb - 0.00 in0.0 mm 0.02 in0.5 mm
03:00 AM 38.5°F3.6°C 33.5°F0.8°C 82% Calm Calm -- 29.67 in1004.7 mb - 0.00 in0.0 mm 0.02 in0.5 mm
03:10 AM 38.5°F3.6°C 33.5°F0.8°C 82% Calm Calm -- 29.68 in1005.1 mb - 0.00 in0.0 mm 0.02 in0.5 mm
03:20 AM 38.6°F3.7°C 33.6°F0.9°C 82% Calm Calm -- 29.68 in1005.1 mb - 0.01 in0.3 mm 0.03 in0.8 mm
03:30 AM 38.6°F3.7°C 33.6°F0.9°C 82% Calm Calm -- 29.68 in1005.1 mb - 0.00 in0.0 mm 0.03 in0.8 mm
03:40 AM 38.6°F3.7°C 33.6°F0.9°C 82% Calm Calm -- 29.69 in1005.4 mb - 0.00 in0.0 mm 0.03 in0.8 mm
03:50 AM 38.7°F3.7°C 33.7°F0.9°C 82% Calm Calm -- 29.69 in1005.4 mb - 0.00 in0.0 mm 0.03 in0.8 mm
04:00 AM 38.9°F3.8°C 33.9°F1.1°C 82% Calm Calm 1.2 mph1.9 kmh 29.70 in1005.8 mb - 0.00 in0.0 mm 0.03 in0.8 mm
04:10 AM 39.3°F4.1°C 33.3°F0.7°C 79% 1.2 mph N1.9 kmh N 3.5 mph5.6 kmh 29.70 in1005.8 mb - 0.00 in0.0 mm 0.03 in0.8 mm
04:20 AM 39.6°F4.2°C 33.3°F0.7°C 78% Calm Calm 5.8 mph9.3 kmh 29.71 in1006.1 mb - 0.00 in0.0 mm 0.03 in0.8 mm
04:30 AM 39.5°F4.2°C 32.9°F0.5°C 77% 3.5 mph N5.6 kmh N 4.6 mph7.4 kmh 29.72 in1006.4 mb - 0.00 in0.0 mm 0.03 in0.8 mm
04:40 AM 39.3°F4.1°C 32.7°F0.4°C 77% 3.5 mph N5.6 kmh N 4.6 mph7.4 kmh 29.72 in1006.4 mb - 0.00 in0.0 mm 0.03 in0.8 mm
04:50 AM 39.4°F4.1°C 32.5°F0.3°C 76% 2.3 mph N3.7 kmh N 4.6 mph7.4 kmh 29.72 in1006.4 mb - 0.00 in0.0 mm 0.03 in0.8 mm
05:00 AM 39.4°F4.1°C 32.8°F0.4°C 77% Calm Calm -- 29.73 in1006.8 mb - 0.00 in0.0 mm 0.03 in0.8 mm
05:10 AM 39.5°F4.2°C 32.6°F0.3°C 76% Calm Calm -- 29.73 in1006.8 mb - 0.00 in0.0 mm 0.03 in0.8 mm
05:20 AM 39.5°F4.2°C 32.6°F0.3°C 76% Calm Calm -- 29.73 in1006.8 mb - 0.00 in0.0 mm 0.03 in0.8 mm
05:30 AM 39.7°F4.3°C 32.4°F0.2°C 75% Calm Calm -- 29.74 in1007.1 mb - 0.00 in0.0 mm 0.03 in0.8 mm
05:40 AM 39.7°F4.3°C 32.4°F0.2°C 75% Calm Calm -- 29.74 in1007.1 mb - 0.00 in0.0 mm 0.03 in0.8 mm
05:50 AM 39.7°F4.3°C 32.8°F0.4°C 76% 1.2 mph NW1.9 kmh NW 1.2 mph1.9 kmh 29.75 in1007.5 mb - 0.00 in0.0 mm 0.03 in0.8 mm
06:00 AM 39.8°F4.3°C 32.8°F0.4°C 76% Calm Calm -- 29.75 in1007.5 mb - 0.00 in0.0 mm 0.03 in0.8 mm
06:10 AM 40.1°F4.5°C 33.1°F0.6°C 76% Calm Calm -- 29.76 in1007.8 mb - 0.00 in0.0 mm 0.03 in0.8 mm
06:20 AM 40.5°F4.7°C 33.2°F0.7°C 75% Calm Calm -- 29.77 in1008.1 mb - 0.00 in0.0 mm 0.03 in0.8 mm
06:30 AM 40.9°F4.9°C 33.6°F0.9°C 75% Calm Calm -- 29.77 in1008.1 mb - 0.00 in0.0 mm 0.03 in0.8 mm
06:40 AM 41.3°F5.2°C 33.7°F0.9°C 74% Calm Calm -- 29.77 in1008.1 mb - 0.00 in0.0 mm 0.03 in0.8 mm
06:50 AM 42.2°F5.7°C 34.1°F1.2°C 73% Calm Calm -- 29.77 in1008.1 mb - 0.00 in0.0 mm 0.03 in0.8 mm
07:00 AM 43.1°F6.2°C 33.6°F0.9°C 69% 1.2 mph NW1.9 kmh NW 3.5 mph5.6 kmh 29.78 in1008.5 mb - 0.00 in0.0 mm 0.03 in0.8 mm
07:10 AM 43.5°F6.4°C 33.6°F0.9°C 68% 1.2 mph NNW1.9 kmh NNW 2.3 mph3.7 kmh 29.78 in1008.5 mb - 0.00 in0.0 mm 0.03 in0.8 mm
07:20 AM 44.1°F6.7°C 32.7°F0.4°C 64% 2.3 mph NNW3.7 kmh NNW 3.5 mph5.6 kmh 29.79 in1008.8 mb - 0.00 in0.0 mm 0.03 in0.8 mm
07:30 AM 44.7°F7.1°C 31.2°F-0.4°C 59% 2.3 mph N3.7 kmh N 4.6 mph7.4 kmh 29.79 in1008.8 mb - 0.00 in0.0 mm 0.03 in0.8 mm
07:40 AM 44.9°F7.2°C 29.7°F-1.3°C 55% Calm Calm 3.5 mph5.6 kmh 29.80 in1009.1 mb - 0.00 in0.0 mm 0.03 in0.8 mm
07:50 AM 46.1°F7.8°C 28.9°F-1.7°C 51% 2.3 mph N3.7 kmh N 8.1 mph13.0 kmh 29.80 in1009.1 mb - 0.00 in0.0 mm 0.03 in0.8 mm
08:00 AM 46.8°F8.2°C 28.7°F-1.8°C 49% 3.5 mph N5.6 kmh N 6.9 mph11.1 kmh 29.81 in1009.5 mb - 0.00 in0.0 mm 0.03 in0.8 mm
08:10 AM 47.8°F8.8°C 30.5°F-0.8°C 51% 4.6 mph NNE7.4 kmh NNE 3.5 mph5.6 kmh 29.82 in1009.8 mb - 0.00 in0.0 mm 0.03 in0.8 mm
08:20 AM 47.3°F8.5°C 30.0°F-1.1°C 51% 4.6 mph N7.4 kmh N 8.1 mph13.0 kmh 29.82 in1009.8 mb - 0.00 in0.0 mm 0.03 in0.8 mm
08:30 AM 46.8°F8.2°C 30.6°F-0.8°C 53% 4.6 mph N7.4 kmh N 6.9 mph11.1 kmh 29.83 in1010.2 mb - 0.00 in0.0 mm 0.03 in0.8 mm
08:40 AM 46.8°F8.2°C 30.6°F-0.8°C 53% 6.9 mph NNE11.1 kmh NNE 9.2 mph14.8 kmh 29.83 in1010.2 mb - 0.00 in0.0 mm 0.03 in0.8 mm
08:50 AM 47.5°F8.6°C 31.7°F-0.2°C 54% 4.6 mph N7.4 kmh N 12.7 mph20.4 kmh 29.84 in1010.5 mb - 0.00 in0.0 mm 0.03 in0.8 mm
09:00 AM 48.0°F8.9°C 31.7°F-0.2°C 53% 3.5 mph N5.6 kmh N 11.5 mph18.5 kmh 29.84 in1010.5 mb - 0.00 in0.0 mm 0.03 in0.8 mm
09:10 AM 48.3°F9.1°C 31.0°F-0.6°C 51% 5.8 mph N9.3 kmh N 13.8 mph22.2 kmh 29.84 in1010.5 mb - 0.00 in0.0 mm 0.03 in0.8 mm
09:20 AM 48.1°F8.9°C 30.8°F-0.7°C 51% 4.6 mph N7.4 kmh N 10.4 mph16.7 kmh 29.85 in1010.8 mb - 0.00 in0.0 mm 0.03 in0.8 mm
09:30 AM 48.3°F9.1°C 31.0°F-0.6°C 51% 4.6 mph N7.4 kmh N 6.9 mph11.1 kmh 29.86 in1011.2 mb - 0.00 in0.0 mm 0.03 in0.8 mm
09:40 AM 48.6°F9.2°C 30.7°F-0.7°C 50% 4.6 mph N7.4 kmh N 4.6 mph7.4 kmh 29.87 in1011.5 mb - 0.00 in0.0 mm 0.03 in0.8 mm
09:50 AM 48.9°F9.4°C 32.0°F0.0°C 52% 2.3 mph N3.7 kmh N 8.1 mph13.0 kmh 29.87 in1011.5 mb - 0.00 in0.0 mm 0.03 in0.8 mm
10:00 AM 49.9°F9.9°C 31.0°F-0.6°C 48% 3.5 mph N5.6 kmh N 6.9 mph11.1 kmh 29.88 in1011.9 mb - 0.00 in0.0 mm 0.03 in0.8 mm
10:10 AM 50.4°F10.2°C 32.4°F0.2°C 50% 4.6 mph NNE7.4 kmh NNE 11.5 mph18.5 kmh 29.89 in1012.2 mb - 0.00 in0.0 mm 0.03 in0.8 mm
10:20 AM 51.3°F10.7°C 32.8°F0.4°C 49% 3.5 mph N5.6 kmh N 5.8 mph9.3 kmh 29.89 in1012.2 mb - 0.00 in0.0 mm 0.03 in0.8 mm
10:30 AM 52.4°F11.3°C 32.2°F0.1°C 46% 4.6 mph NNE7.4 kmh NNE 8.1 mph13.0 kmh 29.89 in1012.2 mb - 0.00 in0.0 mm 0.03 in0.8 mm
10:40 AM 53.3°F11.8°C 32.5°F0.3°C 45% 3.5 mph NE5.6 kmh NE 8.1 mph13.0 kmh 29.89 in1012.2 mb - 0.00 in0.0 mm 0.03 in0.8 mm
10:50 AM 54.0°F12.2°C 33.2°F0.7°C 45% 2.3 mph N3.7 kmh N 5.8 mph9.3 kmh 29.89 in1012.2 mb - 0.00 in0.0 mm 0.03 in0.8 mm
11:00 AM 54.1°F12.3°C 32.7°F0.4°C 44% 2.3 mph N3.7 kmh N 3.5 mph5.6 kmh 29.89 in1012.2 mb - 0.00 in0.0 mm 0.03 in0.8 mm
11:10 AM 54.3°F12.4°C 31.1°F-0.5°C 41% 1.2 mph NW1.9 kmh NW 3.5 mph5.6 kmh 29.89 in1012.2 mb - 0.00 in0.0 mm 0.03 in0.8 mm
11:20 AM 54.4°F12.4°C 31.8°F-0.1°C 42% 5.8 mph NE9.3 kmh NE 11.5 mph18.5 kmh 29.89 in1012.2 mb - 0.00 in0.0 mm 0.03 in0.8 mm
11:30 AM 54.7°F12.6°C 32.0°F0.0°C 42% 2.3 mph N3.7 kmh N 6.9 mph11.1 kmh 29.90 in1012.5 mb - 0.00 in0.0 mm 0.03 in0.8 mm
11:40 AM 55.3°F12.9°C 31.4°F-0.3°C 40% 2.3 mph N3.7 kmh N 2.3 mph3.7 kmh 29.91 in1012.9 mb - 0.00 in0.0 mm 0.03 in0.8 mm
11:50 AM 55.5°F13.1°C 31.5°F-0.3°C 40% 2.3 mph NE3.7 kmh NE 3.5 mph5.6 kmh 29.90 in1012.5 mb - 0.00 in0.0 mm 0.03 in0.8 mm
12:00 PM 56.5°F13.6°C 30.5°F-0.8°C 37% 2.3 mph ENE3.7 kmh ENE 3.5 mph5.6 kmh 29.91 in1012.9 mb - 0.00 in0.0 mm 0.03 in0.8 mm
12:10 PM 57.2°F14.0°C 32.5°F0.3°C 39% 1.2 mph NE1.9 kmh NE 6.9 mph11.1 kmh 29.90 in1012.5 mb - 0.00 in0.0 mm 0.03 in0.8 mm
12:20 PM 57.1°F13.9°C 33.6°F0.9°C 41% 1.2 mph NNE1.9 kmh NNE 3.5 mph5.6 kmh 29.91 in1012.9 mb - 0.00 in0.0 mm 0.03 in0.8 mm
12:30 PM 56.9°F13.8°C 30.8°F-0.7°C 37% Calm Calm -- 29.91 in1012.9 mb - 0.00 in0.0 mm 0.03 in0.8 mm
12:40 PM 58.1°F14.5°C 32.6°F0.3°C 38% 3.5 mph NNE5.6 kmh NNE 4.6 mph7.4 kmh 29.91 in1012.9 mb - 0.00 in0.0 mm 0.03 in0.8 mm
12:50 PM 58.3°F14.6°C 34.1°F1.2°C 40% Calm Calm -- 29.91 in1012.9 mb - 0.00 in0.0 mm 0.03 in0.8 mm
01:00 PM 58.6°F14.8°C 31.7°F-0.2°C 36% 3.5 mph NW5.6 kmh NW 8.1 mph13.0 kmh 29.91 in1012.9 mb - 0.00 in0.0 mm 0.03 in0.8 mm
01:10 PM 58.0°F14.4°C 31.2°F-0.4°C 36% Calm Calm -- 29.92 in1013.2 mb - 0.00 in0.0 mm 0.03 in0.8 mm
01:20 PM 59.1°F15.1°C 30.0°F-1.1°C 33% Calm Calm -- 29.92 in1013.2 mb - 0.00 in0.0 mm 0.03 in0.8 mm
01:30 PM 59.0°F15.0°C 29.9°F-1.2°C 33% Calm Calm -- 29.92 in1013.2 mb - 0.00 in0.0 mm 0.03 in0.8 mm
01:40 PM 59.8°F15.4°C 29.8°F-1.2°C 32% Calm Calm -- 29.92 in1013.2 mb - 0.00 in0.0 mm 0.03 in0.8 mm
01:50 PM 59.9°F15.5°C 30.0°F-1.1°C 32% Calm Calm 1.2 mph1.9 kmh 29.92 in1013.2 mb - 0.00 in0.0 mm 0.03 in0.8 mm
02:00 PM 59.9°F15.5°C 28.3°F-2.1°C 30% Calm Calm -- 29.93 in1013.5 mb - 0.00 in0.0 mm 0.03 in0.8 mm
02:10 PM 60.8°F16.0°C 28.3°F-2.1°C 29% 2.3 mph W3.7 kmh W 5.8 mph9.3 kmh 29.92 in1013.2 mb - 0.00 in0.0 mm 0.03 in0.8 mm
02:20 PM 61.3°F16.3°C 29.6°F-1.3°C 30% Calm Calm 8.1 mph13.0 kmh 29.92 in1013.2 mb - 0.00 in0.0 mm 0.03 in0.8 mm
02:30 PM 61.5°F16.4°C 28.1°F-2.2°C 28% Calm Calm -- 29.92 in1013.2 mb - 0.00 in0.0 mm 0.03 in0.8 mm
02:40 PM 61.2°F16.2°C 27.8°F-2.3°C 28% Calm Calm -- 29.93 in1013.5 mb - 0.00 in0.0 mm 0.03 in0.8 mm
02:50 PM 61.7°F16.5°C 29.1°F-1.6°C 29% Calm Calm 3.5 mph5.6 kmh 29.93 in1013.5 mb - 0.00 in0.0 mm 0.03 in0.8 mm
03:00 PM 61.8°F16.6°C 28.3°F-2.1°C 28% 1.2 mph WSW1.9 kmh WSW 3.5 mph5.6 kmh 29.92 in1013.2 mb - 0.00 in0.0 mm 0.03 in0.8 mm
03:10 PM 62.9°F17.2°C 26.5°F-3.1°C 25% 1.2 mph WSW1.9 kmh WSW 3.5 mph5.6 kmh 29.93 in1013.5 mb - 0.00 in0.0 mm 0.03 in0.8 mm
03:20 PM 63.1°F17.3°C 28.5°F-1.9°C 27% Calm Calm -- 29.93 in1013.5 mb - 0.00 in0.0 mm 0.03 in0.8 mm
03:30 PM 62.5°F16.9°C 26.2°F-3.2°C 25% 2.3 mph W3.7 kmh W 3.5 mph5.6 kmh 29.93 in1013.5 mb - 0.00 in0.0 mm 0.03 in0.8 mm
03:40 PM 63.5°F17.5°C 28.9°F-1.7°C 27% Calm Calm 3.5 mph5.6 kmh 29.93 in1013.5 mb - 0.00 in0.0 mm 0.03 in0.8 mm
03:50 PM 63.5°F17.5°C 28.0°F-2.2°C 26% Calm Calm -- 29.93 in1013.5 mb - 0.00 in0.0 mm 0.03 in0.8 mm
04:00 PM 63.4°F17.4°C 28.8°F-1.8°C 27% Calm Calm -- 29.93 in1013.5 mb - 0.00 in0.0 mm 0.03 in0.8 mm
04:10 PM 64.1°F17.8°C 29.4°F-1.4°C 27% Calm Calm 1.2 mph1.9 kmh 29.93 in1013.5 mb - 0.00 in0.0 mm 0.03 in0.8 mm
04:20 PM 64.0°F17.8°C 28.4°F-2.0°C 26% 1.2 mph W1.9 kmh W 6.9 mph11.1 kmh 29.93 in1013.5 mb - 0.00 in0.0 mm 0.03 in0.8 mm
04:30 PM 63.8°F17.7°C 26.3°F-3.2°C 24% Calm Calm -- 29.93 in1013.5 mb - 0.00 in0.0 mm 0.03 in0.8 mm
04:40 PM 64.4°F18.0°C 27.8°F-2.3°C 25% 1.2 mph NE1.9 kmh NE 4.6 mph7.4 kmh 29.93 in1013.5 mb - 0.00 in0.0 mm 0.03 in0.8 mm
04:50 PM 64.5°F18.1°C 27.9°F-2.3°C 25% Calm Calm -- 29.93 in1013.5 mb - 0.00 in0.0 mm 0.03 in0.8 mm
05:00 PM 65.0°F18.3°C 28.3°F-2.1°C 25% Calm Calm -- 29.93 in1013.5 mb - 0.00 in0.0 mm 0.03 in0.8 mm
05:10 PM 64.3°F17.9°C 27.7°F-2.4°C 25% Calm Calm -- 29.93 in1013.5 mb - 0.00 in0.0 mm 0.03 in0.8 mm
05:20 PM 63.7°F17.6°C 26.2°F-3.2°C 24% Calm Calm -- 29.93 in1013.5 mb - 0.00 in0.0 mm 0.03 in0.8 mm
05:30 PM 63.2°F17.3°C 25.8°F-3.4°C 24% Calm Calm -- 29.93 in1013.5 mb - 0.00 in0.0 mm 0.03 in0.8 mm
05:40 PM 63.2°F17.3°C 25.8°F-3.4°C 24% Calm Calm -- 29.94 in1013.9 mb - 0.00 in0.0 mm 0.03 in0.8 mm
05:50 PM 61.9°F16.6°C 26.6°F-3.0°C 26% Calm Calm -- 29.94 in1013.9 mb - 0.00 in0.0 mm 0.03 in0.8 mm
06:00 PM 60.7°F15.9°C 26.5°F-3.1°C 27% Calm Calm -- 29.94 in1013.9 mb - 0.00 in0.0 mm 0.03 in0.8 mm
06:10 PM 60.4°F15.8°C 26.2°F-3.2°C 27% Calm Calm -- 29.94 in1013.9 mb - 0.00 in0.0 mm 0.03 in0.8 mm
06:20 PM 60.5°F15.8°C 27.2°F-2.7°C 28% Calm Calm -- 29.94 in1013.9 mb - 0.00 in0.0 mm 0.03 in0.8 mm
06:30 PM 60.7°F15.9°C 26.5°F-3.1°C 27% Calm Calm -- 29.94 in1013.9 mb - 0.00 in0.0 mm 0.03 in0.8 mm
06:40 PM 60.3°F15.7°C 26.2°F-3.2°C 27% Calm Calm -- 29.94 in1013.9 mb - 0.00 in0.0 mm 0.03 in0.8 mm
06:50 PM 59.9°F15.5°C 27.5°F-2.5°C 29% Calm Calm -- 29.94 in1013.9 mb - 0.00 in0.0 mm 0.03 in0.8 mm
07:00 PM 59.0°F15.0°C 28.3°F-2.1°C 31% Calm Calm -- 29.94 in1013.9 mb - 0.00 in0.0 mm 0.03 in0.8 mm
07:10 PM 58.1°F14.5°C 29.1°F-1.6°C 33% Calm Calm -- 29.94 in1013.9 mb - 0.00 in0.0 mm 0.03 in0.8 mm
07:20 PM 57.0°F13.9°C 29.6°F-1.3°C 35% Calm Calm -- 29.95 in1014.2 mb - 0.00 in0.0 mm 0.03 in0.8 mm
07:30 PM 55.9°F13.3°C 30.0°F-1.1°C 37% Calm Calm -- 29.95 in1014.2 mb - 0.00 in0.0 mm 0.03 in0.8 mm
07:40 PM 54.6°F12.6°C 29.5°F-1.4°C 38% Calm Calm -- 29.95 in1014.2 mb - 0.00 in0.0 mm 0.03 in0.8 mm
07:50 PM 53.5°F11.9°C 29.7°F-1.3°C 40% Calm Calm -- 29.96 in1014.6 mb - 0.00 in0.0 mm 0.03 in0.8 mm
08:00 PM 52.5°F11.4°C 30.7°F-0.7°C 43% Calm Calm -- 29.96 in1014.6 mb - 0.00 in0.0 mm 0.03 in0.8 mm
08:10 PM 51.5°F10.8°C 30.9°F-0.6°C 45% Calm Calm -- 29.96 in1014.6 mb - 0.00 in0.0 mm 0.03 in0.8 mm
08:20 PM 50.6°F10.3°C 31.6°F-0.2°C 48% Calm Calm -- 29.96 in1014.6 mb - 0.00 in0.0 mm 0.03 in0.8 mm
08:30 PM 49.8°F9.9°C 31.8°F-0.1°C 50% Calm Calm -- 29.97 in1014.9 mb - 0.00 in0.0 mm 0.03 in0.8 mm
08:40 PM 48.9°F9.4°C 32.1°F0.1°C 52% Calm Calm -- 29.97 in1014.9 mb - 0.00 in0.0 mm 0.03 in0.8 mm
08:50 PM 48.2°F9.0°C 31.8°F-0.1°C 53% Calm Calm -- 29.98 in1015.2 mb - 0.00 in0.0 mm 0.03 in0.8 mm
09:00 PM 47.6°F8.7°C 32.2°F0.1°C 55% Calm Calm -- 29.98 in1015.2 mb - 0.00 in0.0 mm 0.03 in0.8 mm
09:10 PM 46.9°F8.3°C 32.4°F0.2°C 57% Calm Calm -- 29.98 in1015.2 mb - 0.00 in0.0 mm 0.03 in0.8 mm
09:20 PM 46.2°F7.9°C 32.7°F0.4°C 59% Calm Calm -- 29.98 in1015.2 mb - 0.00 in0.0 mm 0.03 in0.8 mm
09:30 PM 45.8°F7.7°C 32.7°F0.4°C 60% Calm Calm -- 29.98 in1015.2 mb - 0.00 in0.0 mm 0.03 in0.8 mm
09:40 PM 45.4°F7.4°C 33.1°F0.6°C 62% Calm Calm -- 29.99 in1015.6 mb - 0.00 in0.0 mm 0.03 in0.8 mm
09:50 PM 45.1°F7.3°C 32.8°F0.4°C 62% Calm Calm -- 29.99 in1015.6 mb - 0.00 in0.0 mm 0.03 in0.8 mm
10:00 PM 44.9°F7.2°C 33.1°F0.6°C 63% Calm Calm -- 29.99 in1015.6 mb - 0.00 in0.0 mm 0.03 in0.8 mm
10:10 PM 44.6°F7.0°C 34.0°F1.1°C 66% Calm Calm -- 29.99 in1015.6 mb - 0.00 in0.0 mm 0.03 in0.8 mm
10:20 PM 44.4°F6.9°C 34.1°F1.2°C 67% Calm Calm -- 29.99 in1015.6 mb - 0.00 in0.0 mm 0.03 in0.8 mm
10:30 PM 44.0°F6.7°C 33.8°F1.0°C 67% Calm Calm -- 29.99 in1015.6 mb - 0.00 in0.0 mm 0.03 in0.8 mm
10:40 PM 43.6°F6.4°C 33.8°F1.0°C 68% Calm Calm -- 29.99 in1015.6 mb - 0.00 in0.0 mm 0.03 in0.8 mm
10:50 PM 43.4°F6.3°C 33.9°F1.1°C 69% Calm Calm -- 29.99 in1015.6 mb - 0.00 in0.0 mm 0.03 in0.8 mm
11:00 PM 43.1°F6.2°C 33.6°F0.9°C 69% Calm Calm -- 29.99 in1015.6 mb - 0.00 in0.0 mm 0.02 in0.5 mm
11:10 PM 42.7°F5.9°C 33.6°F0.9°C 70% Calm Calm -- 29.99 in1015.6 mb - 0.00 in0.0 mm 0.02 in0.5 mm
11:20 PM 42.4°F5.8°C 33.6°F0.9°C 71% Calm Calm -- 29.99 in1015.6 mb - 0.00 in0.0 mm 0.02 in0.5 mm
11:30 PM 42.0°F5.6°C 33.3°F0.7°C 71% Calm Calm -- 30.00 in1015.9 mb - 0.00 in0.0 mm 0.02 in0.5 mm
11:40 PM 41.8°F5.4°C 33.4°F0.8°C 72% Calm Calm -- 30.00 in1015.9 mb - 0.00 in0.0 mm 0.02 in0.5 mm
11:50 PM 41.5°F5.3°C 33.5°F0.8°C 73% Calm Calm -- 30.00 in1015.9 mb - 0.00 in0.0 mm 0.02 in0.5 mm